sensor_id;sensor_type;location;lat;lon;timestamp;temperature;humidity
71188;DHT22;58893;53.130;8.158;2023-03-08T00:00:07;4.70;73.30
71188;DHT22;58893;53.130;8.158;2023-03-08T00:02:35;4.70;73.40
71188;DHT22;58893;53.130;8.158;2023-03-08T00:05:01;4.70;73.50
71188;DHT22;58893;53.130;8.158;2023-03-08T00:07:28;4.70;73.70
71188;DHT22;58893;53.130;8.158;2023-03-08T00:09:53;4.70;73.90
71188;DHT22;58893;53.130;8.158;2023-03-08T00:12:19;4.70;74.50
71188;DHT22;58893;53.130;8.158;2023-03-08T00:14:47;4.70;73.90
71188;DHT22;58893;53.130;8.158;2023-03-08T00:17:14;4.70;74.00
71188;DHT22;58893;53.130;8.158;2023-03-08T00:19:40;4.70;74.00
71188;DHT22;58893;53.130;8.158;2023-03-08T00:22:05;4.70;74.10
71188;DHT22;58893;53.130;8.158;2023-03-08T00:24:31;4.70;74.10
71188;DHT22;58893;53.130;8.158;2023-03-08T00:26:56;4.70;74.10
71188;DHT22;58893;53.130;8.158;2023-03-08T00:29:22;4.70;74.00
71188;DHT22;58893;53.130;8.158;2023-03-08T00:31:48;4.70;74.00
71188;DHT22;58893;53.130;8.158;2023-03-08T00:34:14;4.70;73.90
71188;DHT22;58893;53.130;8.158;2023-03-08T00:36:40;4.70;73.90
71188;DHT22;58893;53.130;8.158;2023-03-08T00:39:06;4.60;73.80
71188;DHT22;58893;53.130;8.158;2023-03-08T00:41:32;4.60;73.80
71188;DHT22;58893;53.130;8.158;2023-03-08T00:43:58;4.60;73.90
71188;DHT22;58893;53.130;8.158;2023-03-08T00:46:24;4.60;73.90
71188;DHT22;58893;53.130;8.158;2023-03-08T00:48:50;4.60;74.00
71188;DHT22;58893;53.130;8.158;2023-03-08T00:51:18;4.60;74.10
71188;DHT22;58893;53.130;8.158;2023-03-08T00:53:44;4.60;74.20
71188;DHT22;58893;53.130;8.158;2023-03-08T00:56:10;4.60;74.30
71188;DHT22;58893;53.130;8.158;2023-03-08T00:58:38;4.60;74.40
71188;DHT22;58893;53.130;8.158;2023-03-08T01:01:05;4.60;74.50
71188;DHT22;58893;53.130;8.158;2023-03-08T01:03:31;4.60;74.50
71188;DHT22;58893;53.130;8.158;2023-03-08T01:05:58;4.60;74.50
71188;DHT22;58893;53.130;8.158;2023-03-08T01:08:25;4.60;74.50
71188;DHT22;58893;53.130;8.158;2023-03-08T01:10:58;4.60;74.50
71188;DHT22;58893;53.130;8.158;2023-03-08T01:13:26;4.60;74.50
71188;DHT22;58893;53.130;8.158;2023-03-08T01:15:52;4.60;74.50
71188;DHT22;58893;53.130;8.158;2023-03-08T01:18:18;4.60;74.40
71188;DHT22;58893;53.130;8.158;2023-03-08T01:20:44;4.50;74.40
71188;DHT22;58893;53.130;8.158;2023-03-08T01:23:10;4.50;74.30
71188;DHT22;58893;53.130;8.158;2023-03-08T01:25:36;4.50;74.30
71188;DHT22;58893;53.130;8.158;2023-03-08T01:28:01;4.50;74.30
71188;DHT22;58893;53.130;8.158;2023-03-08T01:30:27;4.50;74.30
71188;DHT22;58893;53.130;8.158;2023-03-08T01:32:53;4.50;75.00
71188;DHT22;58893;53.130;8.158;2023-03-08T01:35:19;4.50;74.40
71188;DHT22;58893;53.130;8.158;2023-03-08T01:37:44;4.50;74.30
71188;DHT22;58893;53.130;8.158;2023-03-08T01:40:14;4.50;74.30
71188;DHT22;58893;53.130;8.158;2023-03-08T01:42:40;4.50;74.30
71188;DHT22;58893;53.130;8.158;2023-03-08T01:48:11;4.50;74.20
71188;DHT22;58893;53.130;8.158;2023-03-08T01:50:38;4.50;74.20
71188;DHT22;58893;53.130;8.158;2023-03-08T01:53:04;4.40;74.10
71188;DHT22;58893;53.130;8.158;2023-03-08T01:55:30;4.40;74.20
71188;DHT22;58893;53.130;8.158;2023-03-08T01:57:56;4.40;74.20
71188;DHT22;58893;53.130;8.158;2023-03-08T02:00:23;4.40;74.30
71188;DHT22;58893;53.130;8.158;2023-03-08T02:03:03;4.40;74.30
71188;DHT22;58893;53.130;8.158;2023-03-08T02:05:30;4.40;74.50
71188;DHT22;58893;53.130;8.158;2023-03-08T02:07:57;4.30;74.40
71188;DHT22;58893;53.130;8.158;2023-03-08T02:10:22;4.40;74.50
71188;DHT22;58893;53.130;8.158;2023-03-08T02:12:48;4.30;74.50
71188;DHT22;58893;53.130;8.158;2023-03-08T02:15:16;4.40;74.50
71188;DHT22;58893;53.130;8.158;2023-03-08T02:17:43;4.40;74.60
71188;DHT22;58893;53.130;8.158;2023-03-08T02:22:53;4.30;74.60
71188;DHT22;58893;53.130;8.158;2023-03-08T02:25:23;4.30;74.50
71188;DHT22;58893;53.130;8.158;2023-03-08T02:27:50;4.30;74.60
71188;DHT22;58893;53.130;8.158;2023-03-08T02:30:22;4.20;74.60
71188;DHT22;58893;53.130;8.158;2023-03-08T02:32:48;4.20;74.70
71188;DHT22;58893;53.130;8.158;2023-03-08T02:35:14;4.20;74.70
71188;DHT22;58893;53.130;8.158;2023-03-08T02:37:39;4.20;74.70
71188;DHT22;58893;53.130;8.158;2023-03-08T02:40:06;4.20;74.70
71188;DHT22;58893;53.130;8.158;2023-03-08T02:42:32;4.20;74.80
71188;DHT22;58893;53.130;8.158;2023-03-08T02:44:58;4.20;74.90
71188;DHT22;58893;53.130;8.158;2023-03-08T02:47:23;4.20;75.00
71188;DHT22;58893;53.130;8.158;2023-03-08T02:49:49;4.20;75.00
71188;DHT22;58893;53.130;8.158;2023-03-08T02:52:14;4.20;75.10
71188;DHT22;58893;53.130;8.158;2023-03-08T02:54:40;4.10;75.20
71188;DHT22;58893;53.130;8.158;2023-03-08T02:57:06;4.10;75.20
71188;DHT22;58893;53.130;8.158;2023-03-08T02:59:31;4.10;75.20
71188;DHT22;58893;53.130;8.158;2023-03-08T03:01:57;4.10;75.20
71188;DHT22;58893;53.130;8.158;2023-03-08T03:04:23;4.20;75.40
71188;DHT22;58893;53.130;8.158;2023-03-08T03:06:48;4.10;75.30
71188;DHT22;58893;53.130;8.158;2023-03-08T03:09:14;4.10;75.30
71188;DHT22;58893;53.130;8.158;2023-03-08T03:11:40;4.10;75.20
71188;DHT22;58893;53.130;8.158;2023-03-08T03:14:06;4.10;75.20
71188;DHT22;58893;53.130;8.158;2023-03-08T03:16:32;4.10;75.90
71188;DHT22;58893;53.130;8.158;2023-03-08T03:18:58;4.10;75.30
71188;DHT22;58893;53.130;8.158;2023-03-08T03:21:25;4.10;75.30
71188;DHT22;58893;53.130;8.158;2023-03-08T03:23:50;4.10;75.30
71188;DHT22;58893;53.130;8.158;2023-03-08T03:26:21;4.10;75.40
71188;DHT22;58893;53.130;8.158;2023-03-08T03:28:47;4.10;76.00
71188;DHT22;58893;53.130;8.158;2023-03-08T03:31:16;4.10;75.40
71188;DHT22;58893;53.130;8.158;2023-03-08T03:33:42;4.10;75.40
71188;DHT22;58893;53.130;8.158;2023-03-08T03:36:10;4.10;75.50
71188;DHT22;58893;53.130;8.158;2023-03-08T03:38:36;4.10;75.50
71188;DHT22;58893;53.130;8.158;2023-03-08T03:41:06;4.10;75.50
71188;DHT22;58893;53.130;8.158;2023-03-08T03:43:32;4.10;75.50
71188;DHT22;58893;53.130;8.158;2023-03-08T03:46:00;4.10;75.50
71188;DHT22;58893;53.130;8.158;2023-03-08T03:48:26;4.10;75.50
71188;DHT22;58893;53.130;8.158;2023-03-08T03:51:05;4.10;75.50
71188;DHT22;58893;53.130;8.158;2023-03-08T03:53:33;4.10;75.50
71188;DHT22;58893;53.130;8.158;2023-03-08T03:58:38;4.00;75.50
71188;DHT22;58893;53.130;8.158;2023-03-08T04:01:09;4.00;76.10
71188;DHT22;58893;53.130;8.158;2023-03-08T04:03:34;4.00;75.40
71188;DHT22;58893;53.130;8.158;2023-03-08T04:06:13;4.00;75.40
71188;DHT22;58893;53.130;8.158;2023-03-08T04:08:39;4.00;75.30
71188;DHT22;58893;53.130;8.158;2023-03-08T04:11:15;4.00;75.20
71188;DHT22;58893;53.130;8.158;2023-03-08T04:13:42;3.90;75.00
71188;DHT22;58893;53.130;8.158;2023-03-08T04:16:22;3.90;74.90
71188;DHT22;58893;53.130;8.158;2023-03-08T04:18:52;3.90;75.00
71188;DHT22;58893;53.130;8.158;2023-03-08T04:21:18;3.90;75.00
71188;DHT22;58893;53.130;8.158;2023-03-08T04:23:44;3.90;75.10
71188;DHT22;58893;53.130;8.158;2023-03-08T04:26:09;3.80;75.20
71188;DHT22;58893;53.130;8.158;2023-03-08T04:28:35;3.80;75.40
71188;DHT22;58893;53.130;8.158;2023-03-08T04:31:22;3.80;75.60
71188;DHT22;58893;53.130;8.158;2023-03-08T04:33:49;3.80;75.70
71188;DHT22;58893;53.130;8.158;2023-03-08T04:36:15;3.90;75.80
71188;DHT22;58893;53.130;8.158;2023-03-08T04:38:42;3.90;75.70
71188;DHT22;58893;53.130;8.158;2023-03-08T04:41:08;3.90;75.60
71188;DHT22;58893;53.130;8.158;2023-03-08T04:43:43;4.00;75.50
71188;DHT22;58893;53.130;8.158;2023-03-08T04:46:09;4.00;75.40
71188;DHT22;58893;53.130;8.158;2023-03-08T04:48:35;4.00;75.20
71188;DHT22;58893;53.130;8.158;2023-03-08T04:51:02;4.00;75.10
71188;DHT22;58893;53.130;8.158;2023-03-08T04:53:29;4.10;75.10
71188;DHT22;58893;53.130;8.158;2023-03-08T04:55:55;4.10;74.90
71188;DHT22;58893;53.130;8.158;2023-03-08T04:58:21;4.10;74.80
71188;DHT22;58893;53.130;8.158;2023-03-08T05:00:47;4.10;74.60
71188;DHT22;58893;53.130;8.158;2023-03-08T05:03:13;4.10;74.60
71188;DHT22;58893;53.130;8.158;2023-03-08T05:05:50;4.10;74.60
71188;DHT22;58893;53.130;8.158;2023-03-08T05:08:16;4.10;74.60
71188;DHT22;58893;53.130;8.158;2023-03-08T05:10:51;4.10;74.70
71188;DHT22;58893;53.130;8.158;2023-03-08T05:13:18;4.00;74.70
71188;DHT22;58893;53.130;8.158;2023-03-08T05:15:44;4.00;74.80
71188;DHT22;58893;53.130;8.158;2023-03-08T05:18:10;4.00;74.90
71188;DHT22;58893;53.130;8.158;2023-03-08T05:20:35;4.00;75.50
71188;DHT22;58893;53.130;8.158;2023-03-08T05:23:01;4.00;74.80
71188;DHT22;58893;53.130;8.158;2023-03-08T05:25:28;3.90;74.80
71188;DHT22;58893;53.130;8.158;2023-03-08T05:27:55;3.90;74.90
71188;DHT22;58893;53.130;8.158;2023-03-08T05:30:21;3.90;74.90
71188;DHT22;58893;53.130;8.158;2023-03-08T05:32:47;3.90;75.00
71188;DHT22;58893;53.130;8.158;2023-03-08T05:35:12;3.90;75.10
71188;DHT22;58893;53.130;8.158;2023-03-08T05:37:38;3.90;75.10
71188;DHT22;58893;53.130;8.158;2023-03-08T05:40:04;3.90;75.20
71188;DHT22;58893;53.130;8.158;2023-03-08T05:42:31;3.90;74.90
71188;DHT22;58893;53.130;8.158;2023-03-08T05:44:57;3.80;74.70
71188;DHT22;58893;53.130;8.158;2023-03-08T05:47:23;3.80;74.70
71188;DHT22;58893;53.130;8.158;2023-03-08T05:49:50;3.70;74.70
71188;DHT22;58893;53.130;8.158;2023-03-08T05:52:15;3.70;74.80
71188;DHT22;58893;53.130;8.158;2023-03-08T05:54:41;3.70;75.20
71188;DHT22;58893;53.130;8.158;2023-03-08T05:57:07;3.60;75.30
71188;DHT22;58893;53.130;8.158;2023-03-08T05:59:32;3.60;75.40
71188;DHT22;58893;53.130;8.158;2023-03-08T06:01:58;3.60;75.50
71188;DHT22;58893;53.130;8.158;2023-03-08T06:04:23;3.60;75.40
71188;DHT22;58893;53.130;8.158;2023-03-08T06:06:49;3.60;75.60
71188;DHT22;58893;53.130;8.158;2023-03-08T06:09:15;3.60;75.80
71188;DHT22;58893;53.130;8.158;2023-03-08T06:11:40;3.60;76.00
71188;DHT22;58893;53.130;8.158;2023-03-08T06:14:06;3.60;76.00
71188;DHT22;58893;53.130;8.158;2023-03-08T06:16:32;3.60;76.10
71188;DHT22;58893;53.130;8.158;2023-03-08T06:18:57;3.60;76.10
71188;DHT22;58893;53.130;8.158;2023-03-08T06:21:23;3.60;76.10
71188;DHT22;58893;53.130;8.158;2023-03-08T06:23:49;3.60;76.20
71188;DHT22;58893;53.130;8.158;2023-03-08T06:26:15;3.60;76.20
71188;DHT22;58893;53.130;8.158;2023-03-08T06:28:41;3.60;76.30
71188;DHT22;58893;53.130;8.158;2023-03-08T06:31:09;3.70;76.40
71188;DHT22;58893;53.130;8.158;2023-03-08T06:33:36;3.70;76.50
71188;DHT22;58893;53.130;8.158;2023-03-08T06:38:28;3.70;76.60
71188;DHT22;58893;53.130;8.158;2023-03-08T06:40:55;3.70;76.60
71188;DHT22;58893;53.130;8.158;2023-03-08T06:43:20;3.70;76.60
71188;DHT22;58893;53.130;8.158;2023-03-08T06:45:46;3.80;76.70
71188;DHT22;58893;53.130;8.158;2023-03-08T06:48:12;3.80;76.70
71188;DHT22;58893;53.130;8.158;2023-03-08T06:50:38;3.80;76.70
71188;DHT22;58893;53.130;8.158;2023-03-08T06:53:03;3.80;76.80
71188;DHT22;58893;53.130;8.158;2023-03-08T06:55:29;3.80;76.80
71188;DHT22;58893;53.130;8.158;2023-03-08T06:57:55;3.80;76.90
71188;DHT22;58893;53.130;8.158;2023-03-08T07:00:21;3.80;76.90
71188;DHT22;58893;53.130;8.158;2023-03-08T07:02:47;3.80;77.00
71188;DHT22;58893;53.130;8.158;2023-03-08T07:05:14;3.90;77.20
71188;DHT22;58893;53.130;8.158;2023-03-08T07:07:41;3.90;77.30
71188;DHT22;58893;53.130;8.158;2023-03-08T07:10:08;3.90;77.50
71188;DHT22;58893;53.130;8.158;2023-03-08T07:12:35;3.90;77.50
71188;DHT22;58893;53.130;8.158;2023-03-08T07:15:06;3.90;77.60
71188;DHT22;58893;53.130;8.158;2023-03-08T07:17:32;4.00;77.80
71188;DHT22;58893;53.130;8.158;2023-03-08T07:19:59;4.00;77.90
71188;DHT22;58893;53.130;8.158;2023-03-08T07:22:25;4.00;77.90
71188;DHT22;58893;53.130;8.158;2023-03-08T07:24:51;4.10;78.00
71188;DHT22;58893;53.130;8.158;2023-03-08T07:27:16;4.10;78.00
71188;DHT22;58893;53.130;8.158;2023-03-08T07:29:42;4.10;78.00
71188;DHT22;58893;53.130;8.158;2023-03-08T07:32:07;4.10;78.10
71188;DHT22;58893;53.130;8.158;2023-03-08T07:34:33;4.20;78.20
71188;DHT22;58893;53.130;8.158;2023-03-08T07:36:59;4.20;78.20
71188;DHT22;58893;53.130;8.158;2023-03-08T07:39:24;4.20;78.20
71188;DHT22;58893;53.130;8.158;2023-03-08T07:41:50;4.20;78.30
71188;DHT22;58893;53.130;8.158;2023-03-08T07:44:15;4.30;78.40
71188;DHT22;58893;53.130;8.158;2023-03-08T07:46:41;4.30;78.40
71188;DHT22;58893;53.130;8.158;2023-03-08T07:49:07;4.30;78.40
71188;DHT22;58893;53.130;8.158;2023-03-08T07:51:36;4.30;78.50
71188;DHT22;58893;53.130;8.158;2023-03-08T07:54:02;4.30;78.60
71188;DHT22;58893;53.130;8.158;2023-03-08T07:56:28;4.40;78.70
71188;DHT22;58893;53.130;8.158;2023-03-08T07:58:57;4.40;78.70
71188;DHT22;58893;53.130;8.158;2023-03-08T08:01:22;4.40;78.80
71188;DHT22;58893;53.130;8.158;2023-03-08T08:03:49;4.40;78.90
71188;DHT22;58893;53.130;8.158;2023-03-08T08:06:15;4.50;79.00
71188;DHT22;58893;53.130;8.158;2023-03-08T08:08:40;4.50;79.10
71188;DHT22;58893;53.130;8.158;2023-03-08T08:11:13;4.50;79.00
71188;DHT22;58893;53.130;8.158;2023-03-08T08:13:39;4.50;79.00
71188;DHT22;58893;53.130;8.158;2023-03-08T08:16:05;4.60;79.10
71188;DHT22;58893;53.130;8.158;2023-03-08T08:18:32;4.60;79.10
71188;DHT22;58893;53.130;8.158;2023-03-08T08:21:02;4.60;79.10
71188;DHT22;58893;53.130;8.158;2023-03-08T08:23:29;4.60;79.10
71188;DHT22;58893;53.130;8.158;2023-03-08T08:25:54;4.60;79.10
71188;DHT22;58893;53.130;8.158;2023-03-08T08:28:23;4.60;79.10
71188;DHT22;58893;53.130;8.158;2023-03-08T08:33:21;4.70;79.10
71188;DHT22;58893;53.130;8.158;2023-03-08T08:35:47;4.70;79.10
71188;DHT22;58893;53.130;8.158;2023-03-08T08:38:13;4.70;79.80
71188;DHT22;58893;53.130;8.158;2023-03-08T08:40:39;4.80;79.20
71188;DHT22;58893;53.130;8.158;2023-03-08T08:43:04;4.80;79.10
71188;DHT22;58893;53.130;8.158;2023-03-08T08:45:30;4.80;79.10
71188;DHT22;58893;53.130;8.158;2023-03-08T08:47:55;4.90;79.10
71188;DHT22;58893;53.130;8.158;2023-03-08T08:50:21;4.90;79.10
71188;DHT22;58893;53.130;8.158;2023-03-08T08:52:47;5.00;79.00
71188;DHT22;58893;53.130;8.158;2023-03-08T08:55:12;5.00;79.00
71188;DHT22;58893;53.130;8.158;2023-03-08T08:57:38;5.00;79.00
71188;DHT22;58893;53.130;8.158;2023-03-08T09:00:04;5.10;79.10
71188;DHT22;58893;53.130;8.158;2023-03-08T09:02:32;5.10;79.10
71188;DHT22;58893;53.130;8.158;2023-03-08T09:04:58;5.10;79.00
71188;DHT22;58893;53.130;8.158;2023-03-08T09:07:24;5.20;79.00
71188;DHT22;58893;53.130;8.158;2023-03-08T09:09:52;5.20;78.90
71188;DHT22;58893;53.130;8.158;2023-03-08T09:12:18;5.30;78.80
71188;DHT22;58893;53.130;8.158;2023-03-08T09:14:45;5.30;78.70
71188;DHT22;58893;53.130;8.158;2023-03-08T09:17:11;5.30;78.60
71188;DHT22;58893;53.130;8.158;2023-03-08T09:19:37;5.40;78.60
71188;DHT22;58893;53.130;8.158;2023-03-08T09:22:03;5.40;78.50
71188;DHT22;58893;53.130;8.158;2023-03-08T09:24:28;5.40;78.30
71188;DHT22;58893;53.130;8.158;2023-03-08T09:26:54;5.40;78.00
71188;DHT22;58893;53.130;8.158;2023-03-08T09:29:20;5.50;77.90
71188;DHT22;58893;53.130;8.158;2023-03-08T09:31:45;5.50;77.70
71188;DHT22;58893;53.130;8.158;2023-03-08T09:34:12;5.50;77.70
71188;DHT22;58893;53.130;8.158;2023-03-08T09:36:39;5.50;77.60
71188;DHT22;58893;53.130;8.158;2023-03-08T09:39:07;5.50;77.40
71188;DHT22;58893;53.130;8.158;2023-03-08T09:41:54;5.60;77.40
71188;DHT22;58893;53.130;8.158;2023-03-08T09:50:47;5.60;77.20
71188;DHT22;58893;53.130;8.158;2023-03-08T10:09:31;5.60;78.20
71188;DHT22;58893;53.130;8.158;2023-03-08T10:14:49;5.70;78.00
71188;DHT22;58893;53.130;8.158;2023-03-08T10:17:22;5.70;78.00
71188;DHT22;58893;53.130;8.158;2023-03-08T10:19:56;5.80;78.10
71188;DHT22;58893;53.130;8.158;2023-03-08T10:22:30;5.80;77.90
71188;DHT22;58893;53.130;8.158;2023-03-08T10:25:20;5.80;77.60
71188;DHT22;58893;53.130;8.158;2023-03-08T10:27:48;5.80;77.40
71188;DHT22;58893;53.130;8.158;2023-03-08T10:30:18;5.80;77.30
71188;DHT22;58893;53.130;8.158;2023-03-08T10:32:46;5.80;77.20
71188;DHT22;58893;53.130;8.158;2023-03-08T10:35:13;5.90;77.20
71188;DHT22;58893;53.130;8.158;2023-03-08T10:37:39;5.90;77.10
71188;DHT22;58893;53.130;8.158;2023-03-08T10:40:13;5.90;76.90
71188;DHT22;58893;53.130;8.158;2023-03-08T10:42:59;5.90;76.80
71188;DHT22;58893;53.130;8.158;2023-03-08T10:45:26;5.90;76.80
71188;DHT22;58893;53.130;8.158;2023-03-08T10:48:00;5.90;76.80
71188;DHT22;58893;53.130;8.158;2023-03-08T10:50:29;6.00;76.90
71188;DHT22;58893;53.130;8.158;2023-03-08T10:53:06;6.00;76.70
71188;DHT22;58893;53.130;8.158;2023-03-08T10:55:50;6.00;76.50
71188;DHT22;58893;53.130;8.158;2023-03-08T11:00:58;6.10;76.20
71188;DHT22;58893;53.130;8.158;2023-03-08T11:03:25;6.10;76.20
71188;DHT22;58893;53.130;8.158;2023-03-08T11:05:55;6.20;76.40
71188;DHT22;58893;53.130;8.158;2023-03-08T11:08:28;6.20;76.00
71188;DHT22;58893;53.130;8.158;2023-03-08T11:11:05;6.20;75.70
71188;DHT22;58893;53.130;8.158;2023-03-08T11:13:42;6.20;75.70
71188;DHT22;58893;53.130;8.158;2023-03-08T11:16:37;6.30;75.90
71188;DHT22;58893;53.130;8.158;2023-03-08T11:30:14;6.50;75.60
71188;DHT22;58893;53.130;8.158;2023-03-08T11:38:25;6.60;74.80
71188;DHT22;58893;53.130;8.158;2023-03-08T11:41:01;6.60;74.30
71188;DHT22;58893;53.130;8.158;2023-03-08T11:49:13;6.70;73.80
71188;DHT22;58893;53.130;8.158;2023-03-08T11:57:04;6.70;72.80
71188;DHT22;58893;53.130;8.158;2023-03-08T11:59:38;6.70;72.40
71188;DHT22;58893;53.130;8.158;2023-03-08T12:07:16;6.80;70.60
71188;DHT22;58893;53.130;8.158;2023-03-08T12:13:08;6.80;70.10
71188;DHT22;58893;53.130;8.158;2023-03-08T12:16:14;6.90;70.00
71188;DHT22;58893;53.130;8.158;2023-03-08T12:19:02;6.90;69.70
71188;DHT22;58893;53.130;8.158;2023-03-08T12:26:42;6.90;69.00
71188;DHT22;58893;53.130;8.158;2023-03-08T12:29:21;6.90;68.10
71188;DHT22;58893;53.130;8.158;2023-03-08T12:31:49;6.90;67.80
71188;DHT22;58893;53.130;8.158;2023-03-08T12:34:36;6.90;67.70
71188;DHT22;58893;53.130;8.158;2023-03-08T12:37:02;7.00;68.00
71188;DHT22;58893;53.130;8.158;2023-03-08T12:39:34;7.00;68.00
71188;DHT22;58893;53.130;8.158;2023-03-08T12:44:28;7.00;67.00
71188;DHT22;58893;53.130;8.158;2023-03-08T12:49:43;7.00;66.10
71188;DHT22;58893;53.130;8.158;2023-03-08T12:54:43;7.00;66.00
71188;DHT22;58893;53.130;8.158;2023-03-08T12:57:22;7.10;66.10
71188;DHT22;58893;53.130;8.158;2023-03-08T12:59:56;7.10;65.60
71188;DHT22;58893;53.130;8.158;2023-03-08T13:04:48;7.10;64.70
71188;DHT22;58893;53.130;8.158;2023-03-08T13:07:26;7.10;64.30
71188;DHT22;58893;53.130;8.158;2023-03-08T13:10:01;7.10;64.20
71188;DHT22;58893;53.130;8.158;2023-03-08T13:12:39;7.10;63.90
71188;DHT22;58893;53.130;8.158;2023-03-08T13:17:52;7.10;62.90
71188;DHT22;58893;53.130;8.158;2023-03-08T13:30:34;7.20;63.10
71188;DHT22;58893;53.130;8.158;2023-03-08T13:33:06;7.20;63.20
71188;DHT22;58893;53.130;8.158;2023-03-08T13:35:32;7.20;62.60
71188;DHT22;58893;53.130;8.158;2023-03-08T13:37:59;7.20;62.60
71188;DHT22;58893;53.130;8.158;2023-03-08T13:40:28;7.20;62.50
71188;DHT22;58893;53.130;8.158;2023-03-08T13:43:00;7.20;62.40
71188;DHT22;58893;53.130;8.158;2023-03-08T13:45:31;7.20;61.80
71188;DHT22;58893;53.130;8.158;2023-03-08T13:47:58;7.20;61.30
71188;DHT22;58893;53.130;8.158;2023-03-08T13:50:41;7.20;61.70
71188;DHT22;58893;53.130;8.158;2023-03-08T13:53:16;7.20;60.50
71188;DHT22;58893;53.130;8.158;2023-03-08T13:55:44;7.20;59.30
71188;DHT22;58893;53.130;8.158;2023-03-08T14:03:29;7.20;58.30
71188;DHT22;58893;53.130;8.158;2023-03-08T14:05:56;7.20;58.20
71188;DHT22;58893;53.130;8.158;2023-03-08T14:08:26;7.20;58.30
71188;DHT22;58893;53.130;8.158;2023-03-08T14:11:06;7.20;58.20
71188;DHT22;58893;53.130;8.158;2023-03-08T14:13:38;7.20;58.30
71188;DHT22;58893;53.130;8.158;2023-03-08T14:16:06;7.20;58.20
71188;DHT22;58893;53.130;8.158;2023-03-08T14:18:41;7.20;58.50
71188;DHT22;58893;53.130;8.158;2023-03-08T14:21:16;7.30;58.50
71188;DHT22;58893;53.130;8.158;2023-03-08T14:23:46;7.30;58.50
71188;DHT22;58893;53.130;8.158;2023-03-08T14:26:39;7.30;59.00
71188;DHT22;58893;53.130;8.158;2023-03-08T14:29:27;7.30;59.30
71188;DHT22;58893;53.130;8.158;2023-03-08T14:34:33;7.30;59.30
71188;DHT22;58893;53.130;8.158;2023-03-08T14:37:24;7.30;59.30
71188;DHT22;58893;53.130;8.158;2023-03-08T14:42:45;7.30;60.10
71188;DHT22;58893;53.130;8.158;2023-03-08T14:47:51;7.30;60.90
71188;DHT22;58893;53.130;8.158;2023-03-08T14:50:19;7.30;61.40
71188;DHT22;58893;53.130;8.158;2023-03-08T14:52:48;7.30;61.70
71188;DHT22;58893;53.130;8.158;2023-03-08T14:57:58;7.20;62.20
71188;DHT22;58893;53.130;8.158;2023-03-08T15:00:25;7.20;62.30
71188;DHT22;58893;53.130;8.158;2023-03-08T15:02:55;7.20;62.40
71188;DHT22;58893;53.130;8.158;2023-03-08T15:05:22;7.20;62.40
71188;DHT22;58893;53.130;8.158;2023-03-08T15:07:49;7.20;62.00
71188;DHT22;58893;53.130;8.158;2023-03-08T15:10:28;7.20;61.70
71188;DHT22;58893;53.130;8.158;2023-03-08T15:12:55;7.20;61.60
71188;DHT22;58893;53.130;8.158;2023-03-08T15:15:20;7.20;61.40
71188;DHT22;58893;53.130;8.158;2023-03-08T15:17:46;7.20;61.30
71188;DHT22;58893;53.130;8.158;2023-03-08T15:20:13;7.20;61.00
71188;DHT22;58893;53.130;8.158;2023-03-08T15:22:46;7.20;60.70
71188;DHT22;58893;53.130;8.158;2023-03-08T15:25:34;7.10;60.40
71188;DHT22;58893;53.130;8.158;2023-03-08T15:28:00;7.10;60.40
71188;DHT22;58893;53.130;8.158;2023-03-08T15:30:28;7.10;60.60
71188;DHT22;58893;53.130;8.158;2023-03-08T15:32:54;7.10;60.40
71188;DHT22;58893;53.130;8.158;2023-03-08T15:35:20;7.10;60.30
71188;DHT22;58893;53.130;8.158;2023-03-08T15:37:46;7.10;60.40
71188;DHT22;58893;53.130;8.158;2023-03-08T15:40:15;7.10;60.00
71188;DHT22;58893;53.130;8.158;2023-03-08T15:42:42;7.10;60.00
71188;DHT22;58893;53.130;8.158;2023-03-08T15:45:08;7.10;60.00
71188;DHT22;58893;53.130;8.158;2023-03-08T15:47:42;7.10;60.00
71188;DHT22;58893;53.130;8.158;2023-03-08T15:50:16;7.10;60.10
71188;DHT22;58893;53.130;8.158;2023-03-08T15:52:43;7.10;60.10
71188;DHT22;58893;53.130;8.158;2023-03-08T15:55:11;7.10;60.20
71188;DHT22;58893;53.130;8.158;2023-03-08T15:57:37;7.10;60.20
71188;DHT22;58893;53.130;8.158;2023-03-08T16:00:05;7.10;60.10
71188;DHT22;58893;53.130;8.158;2023-03-08T16:02:34;7.10;60.20
71188;DHT22;58893;53.130;8.158;2023-03-08T16:05:00;7.00;60.20
71188;DHT22;58893;53.130;8.158;2023-03-08T16:07:26;7.10;60.40
71188;DHT22;58893;53.130;8.158;2023-03-08T16:09:52;7.10;60.10
71188;DHT22;58893;53.130;8.158;2023-03-08T16:12:18;7.00;60.00
71188;DHT22;58893;53.130;8.158;2023-03-08T16:14:47;7.00;59.90
71188;DHT22;58893;53.130;8.158;2023-03-08T16:17:14;7.00;60.00
71188;DHT22;58893;53.130;8.158;2023-03-08T16:19:40;7.00;59.80
71188;DHT22;58893;53.130;8.158;2023-03-08T16:22:06;7.00;59.90
71188;DHT22;58893;53.130;8.158;2023-03-08T16:24:31;7.00;60.10
71188;DHT22;58893;53.130;8.158;2023-03-08T16:26:57;7.00;60.50
71188;DHT22;58893;53.130;8.158;2023-03-08T16:29:24;6.90;60.90
71188;DHT22;58893;53.130;8.158;2023-03-08T16:31:50;6.90;61.40
71188;DHT22;58893;53.130;8.158;2023-03-08T16:34:16;6.90;61.90
71188;DHT22;58893;53.130;8.158;2023-03-08T16:36:42;6.90;62.40
71188;DHT22;58893;53.130;8.158;2023-03-08T16:39:08;6.90;62.70
71188;DHT22;58893;53.130;8.158;2023-03-08T16:41:38;6.90;63.10
71188;DHT22;58893;53.130;8.158;2023-03-08T16:44:05;6.90;63.20
71188;DHT22;58893;53.130;8.158;2023-03-08T16:46:31;6.90;63.40
71188;DHT22;58893;53.130;8.158;2023-03-08T16:48:57;6.90;63.60
71188;DHT22;58893;53.130;8.158;2023-03-08T16:51:26;6.90;63.70
71188;DHT22;58893;53.130;8.158;2023-03-08T16:53:52;6.90;63.80
71188;DHT22;58893;53.130;8.158;2023-03-08T16:56:25;6.80;63.80
71188;DHT22;58893;53.130;8.158;2023-03-08T16:58:55;6.80;63.90
71188;DHT22;58893;53.130;8.158;2023-03-08T17:01:22;6.80;64.00
71188;DHT22;58893;53.130;8.158;2023-03-08T17:03:48;6.80;64.20
71188;DHT22;58893;53.130;8.158;2023-03-08T17:06:15;6.80;64.30
71188;DHT22;58893;53.130;8.158;2023-03-08T17:08:40;6.80;64.50
71188;DHT22;58893;53.130;8.158;2023-03-08T17:11:21;6.80;64.60
71188;DHT22;58893;53.130;8.158;2023-03-08T17:13:48;6.80;64.70
71188;DHT22;58893;53.130;8.158;2023-03-08T17:16:22;6.70;64.60
71188;DHT22;58893;53.130;8.158;2023-03-08T17:18:49;6.70;64.70
71188;DHT22;58893;53.130;8.158;2023-03-08T17:21:16;6.80;64.80
71188;DHT22;58893;53.130;8.158;2023-03-08T17:23:42;6.80;64.80
71188;DHT22;58893;53.130;8.158;2023-03-08T17:26:09;6.70;64.80
71188;DHT22;58893;53.130;8.158;2023-03-08T17:28:36;6.70;65.00
71188;DHT22;58893;53.130;8.158;2023-03-08T17:31:06;6.70;65.10
71188;DHT22;58893;53.130;8.158;2023-03-08T17:33:33;6.70;64.80
71188;DHT22;58893;53.130;8.158;2023-03-08T17:35:59;6.70;64.80
71188;DHT22;58893;53.130;8.158;2023-03-08T17:38:27;6.70;64.70
71188;DHT22;58893;53.130;8.158;2023-03-08T17:40:52;6.60;64.80
71188;DHT22;58893;53.130;8.158;2023-03-08T17:43:18;6.70;65.00
71188;DHT22;58893;53.130;8.158;2023-03-08T17:45:57;6.60;64.90
71188;DHT22;58893;53.130;8.158;2023-03-08T17:48:23;6.60;65.00
71188;DHT22;58893;53.130;8.158;2023-03-08T17:50:48;6.60;65.00
71188;DHT22;58893;53.130;8.158;2023-03-08T17:53:15;6.60;64.90